Time;durP1;ratioP1;P1;durP2;ratioP2;P2;SDS_P1;SDS_P2;PMS_P1;PMS_P2;Temp;Humidity;BMP_temperature;BMP_pressure;BME280_temperature;BME280_humidity;BME280_pressure;Samples;Min_cycle;Max_cycle;Signal;HPM_P1;HPM_P2
2023/11/26 00:01:26;;;;;;;2.28;1.58;;;3.60;96.80;;;;;;6272048;22;20417;-73
2023/11/26 00:04:12;;;;;;;7.05;2.47;;;3.50;96.70;;;;;;6272356;22;20035;-75
2023/11/26 00:06:59;;;;;;;4.70;2.10;;;3.50;96.60;;;;;;6273994;22;20469;-74
2023/11/26 00:09:44;;;;;;;2.83;1.80;;;3.50;96.80;;;;;;6273883;22;20054;-76
2023/11/26 00:12:30;;;;;;;3.88;1.77;;;3.50;96.60;;;;;;6273912;22;20004;-76
2023/11/26 00:15:16;;;;;;;4.38;2.00;;;3.60;96.60;;;;;;6273949;22;20083;-74
2023/11/26 00:18:02;;;;;;;2.80;1.85;;;3.50;96.10;;;;;;6272926;22;20007;-77
2023/11/26 00:20:48;;;;;;;3.88;2.00;;;3.40;95.70;;;;;;6273684;22;20357;-76
2023/11/26 00:23:34;;;;;;;2.42;1.73;;;3.40;96.00;;;;;;6272895;22;20333;-76
2023/11/26 00:26:20;;;;;;;2.97;1.70;;;3.30;95.80;;;;;;6252216;22;20020;-75
2023/11/26 00:29:06;;;;;;;4.05;1.70;;;3.30;95.90;;;;;;6275380;22;20019;-76
2023/11/26 00:31:52;;;;;;;2.88;1.90;;;3.30;95.60;;;;;;6274287;22;20011;-75
2023/11/26 00:34:38;;;;;;;2.63;1.67;;;3.40;95.90;;;;;;6276700;22;20016;-75
2023/11/26 00:37:24;;;;;;;2.92;1.90;;;3.30;95.90;;;;;;6278957;22;20007;-74
2023/11/26 00:40:12;;;;;;;3.85;1.90;;;3.30;95.70;;;;;;6276897;22;20015;-74
2023/11/26 00:42:58;;;;;;;5.00;2.40;;;3.30;95.80;;;;;;6275291;22;20011;-75
2023/11/26 00:45:44;;;;;;;4.63;2.50;;;3.40;95.80;;;;;;6274592;22;20008;-74
2023/11/26 00:48:30;;;;;;;3.90;2.20;;;3.40;95.70;;;;;;6272329;22;20492;-75
2023/11/26 00:51:20;;;;;;;4.28;2.30;;;3.40;95.70;;;;;;6271617;22;20099;-74
2023/11/26 00:54:06;;;;;;;2.28;1.60;;;3.40;95.60;;;;;;6270612;22;20019;-75
2023/11/26 00:56:52;;;;;;;4.47;1.90;;;3.50;95.30;;;;;;6272565;22;20508;-74
2023/11/26 00:59:38;;;;;;;2.22;1.63;;;3.40;95.50;;;;;;6272381;22;20522;-74
2023/11/26 01:02:24;;;;;;;2.35;1.45;;;3.40;95.30;;;;;;6269857;22;20007;-73
2023/11/26 01:05:10;;;;;;;3.67;1.67;;;3.40;95.40;;;;;;6270523;22;20016;-74
2023/11/26 01:07:56;;;;;;;2.35;1.65;;;3.40;95.30;;;;;;6271635;22;20484;-74
2023/11/26 01:10:45;;;;;;;2.90;1.75;;;3.40;95.30;;;;;;6271473;22;20008;-73
2023/11/26 01:13:31;;;;;;;2.22;1.50;;;3.30;95.20;;;;;;6249186;22;20007;-74
2023/11/26 01:16:17;;;;;;;2.33;1.48;;;3.30;95.30;;;;;;6270540;22;20035;-73
2023/11/26 01:19:03;;;;;;;2.42;1.40;;;3.30;95.30;;;;;;6272036;22;20142;-75
2023/11/26 01:21:49;;;;;;;2.35;1.27;;;3.30;95.30;;;;;;6273094;22;19999;-75
2023/11/26 01:24:35;;;;;;;1.95;1.40;;;3.30;95.30;;;;;;6272858;22;20007;-77
2023/11/26 01:27:21;;;;;;;2.80;1.95;;;3.40;95.30;;;;;;6273486;22;20110;-77
2023/11/26 01:30:08;;;;;;;2.47;1.50;;;3.40;95.20;;;;;;6274852;22;20011;-77
2023/11/26 01:32:54;;;;;;;3.45;2.00;;;3.40;95.30;;;;;;6272325;22;20499;-76
2023/11/26 01:35:40;;;;;;;3.55;1.50;;;3.40;95.20;;;;;;6272104;22;20003;-74
2023/11/26 01:38:27;;;;;;;2.63;1.45;;;3.40;94.90;;;;;;6273574;22;20011;-76
2023/11/26 01:41:13;;;;;;;1.88;1.35;;;3.30;94.90;;;;;;6275173;22;20011;-76
2023/11/26 01:44:00;;;;;;;2.00;1.30;;;3.30;95.00;;;;;;6272878;22;20403;-75
2023/11/26 01:46:46;;;;;;;3.17;1.60;;;3.30;94.70;;;;;;6272697;22;20026;-74
2023/11/26 01:49:33;;;;;;;2.38;1.30;;;3.30;94.70;;;;;;6270139;22;20514;-73
2023/11/26 01:52:20;;;;;;;2.67;1.80;;;3.30;94.70;;;;;;6273064;22;20008;-73
2023/11/26 01:55:06;;;;;;;1.95;1.30;;;3.30;94.80;;;;;;6282652;22;20071;-72
2023/11/26 01:57:53;;;;;;;3.45;2.03;;;3.30;94.60;;;;;;6284785;22;20039;-74
2023/11/26 02:00:40;;;;;;;4.40;1.98;;;3.30;94.60;;;;;;6293098;22;20019;-74
2023/11/26 02:03:26;;;;;;;2.55;1.73;;;3.30;94.20;;;;;;6291164;22;20060;-74
2023/11/26 02:06:12;;;;;;;2.70;1.73;;;3.30;94.40;;;;;;6290149;22;20004;-75
2023/11/26 02:09:02;;;;;;;2.72;1.77;;;3.20;93.80;;;;;;6288871;22;20042;-76
2023/11/26 02:11:48;;;;;;;2.33;1.45;;;3.10;94.00;;;;;;6273144;22;20008;-74
2023/11/26 02:14:35;;;;;;;2.47;1.27;;;3.10;93.60;;;;;;6272158;22;20368;-76
2023/11/26 02:17:21;;;;;;;2.90;1.77;;;3.10;93.80;;;;;;6272275;22;20014;-75
2023/11/26 02:20:12;;;;;;;1.90;1.40;;;3.10;93.60;;;;;;6272651;22;20038;-74
2023/11/26 02:22:58;;;;;;;2.00;1.30;;;3.10;94.00;;;;;;6272074;22;20061;-74
2023/11/26 02:25:44;;;;;;;2.80;1.40;;;3.10;93.80;;;;;;6272709;22;20460;-75
2023/11/26 02:28:30;;;;;;;1.90;1.30;;;3.00;93.70;;;;;;6271299;22;20519;-76
2023/11/26 02:31:16;;;;;;;1.80;1.25;;;3.00;93.90;;;;;;6271830;22;20069;-73
2023/11/26 02:34:02;;;;;;;1.50;1.08;;;3.10;94.00;;;;;;6272021;22;20725;-73
2023/11/26 02:36:48;;;;;;;2.45;1.20;;;3.10;94.10;;;;;;6273143;22;20011;-77
2023/11/26 02:39:34;;;;;;;2.38;1.40;;;3.10;94.10;;;;;;6251137;22;20035;-76
2023/11/26 02:42:20;;;;;;;1.52;1.30;;;3.10;94.10;;;;;;6272228;22;20016;-76
2023/11/26 02:45:06;;;;;;;2.65;1.50;;;3.10;94.20;;;;;;6272386;22;20081;-77
2023/11/26 02:47:52;;;;;;;3.03;1.63;;;3.10;94.20;;;;;;6272406;22;19995;-76
2023/11/26 02:50:38;;;;;;;2.67;1.40;;;3.10;94.20;;;;;;6272995;22;20065;-77
2023/11/26 02:53:24;;;;;;;3.10;1.88;;;3.10;94.30;;;;;;6270786;22;20061;-76
2023/11/26 02:56:12;;;;;;;3.03;1.45;;;3.10;94.20;;;;;;6270646;22;20012;-75
2023/11/26 02:58:58;;;;;;;3.30;1.65;;;3.10;94.30;;;;;;6269631;22;20018;-74
2023/11/26 03:01:44;;;;;;;1.80;1.25;;;3.10;94.40;;;;;;6270448;22;20019;-74
2023/11/26 03:04:31;;;;;;;2.15;1.40;;;3.10;94.30;;;;;;6270243;22;20004;-76
2023/11/26 03:07:20;;;;;;;1.60;1.30;;;3.10;94.30;;;;;;6269922;22;20015;-74
2023/11/26 03:13:20;;;;;;;2.35;1.52;;;3.10;94.00;;;;;;6269744;22;20442;-76
2023/11/26 03:16:12;;;;;;;3.25;1.70;;;3.10;94.20;;;;;;6269411;22;20073;-75
2023/11/26 03:18:58;;;;;;;3.42;1.85;;;3.10;94.40;;;;;;6268795;22;20027;-74
2023/11/26 03:21:45;;;;;;;2.53;1.30;;;3.10;94.40;;;;;;6269036;22;20035;-75
2023/11/26 03:24:30;;;;;;;1.95;1.20;;;3.20;94.40;;;;;;6269499;22;20012;-76
2023/11/26 03:27:16;;;;;;;1.85;1.17;;;3.10;94.30;;;;;;6269564;22;20007;-74
2023/11/26 03:30:04;;;;;;;2.08;1.30;;;3.10;94.30;;;;;;6269940;22;20022;-75
2023/11/26 03:32:50;;;;;;;2.00;1.30;;;3.10;94.40;;;;;;6270310;22;20484;-75
2023/11/26 03:35:36;;;;;;;2.22;1.20;;;3.10;94.40;;;;;;6270802;22;20391;-74
2023/11/26 03:38:22;;;;;;;1.30;1.00;;;3.20;94.50;;;;;;6270253;22;20012;-75
2023/11/26 03:41:08;;;;;;;1.67;1.05;;;3.30;94.50;;;;;;6268623;22;20004;-75
2023/11/26 03:43:55;;;;;;;2.15;0.98;;;3.30;94.40;;;;;;6269727;22;20085;-75
2023/11/26 03:46:42;;;;;;;1.85;1.20;;;3.30;94.40;;;;;;6268996;22;20526;-75
2023/11/26 03:49:28;;;;;;;1.40;1.13;;;3.40;94.50;;;;;;6269213;22;20473;-74
2023/11/26 03:52:14;;;;;;;2.30;1.33;;;3.40;94.60;;;;;;6270097;22;20018;-75
2023/11/26 03:55:00;;;;;;;2.22;1.38;;;3.50;94.50;;;;;;6268905;22;20060;-74
2023/11/26 03:57:46;;;;;;;2.40;1.25;;;3.50;94.50;;;;;;6269900;22;20090;-75
2023/11/26 04:00:32;;;;;;;2.92;1.92;;;3.60;94.50;;;;;;6266866;22;20331;-74
2023/11/26 04:03:18;;;;;;;2.42;1.13;;;3.50;94.40;;;;;;6270370;22;20008;-74
2023/11/26 04:06:04;;;;;;;2.50;1.50;;;3.50;94.50;;;;;;6270117;22;20012;-74
2023/11/26 04:08:50;;;;;;;2.45;1.40;;;3.60;94.60;;;;;;6270416;22;20425;-75
2023/11/26 04:11:36;;;;;;;1.85;1.20;;;3.60;94.60;;;;;;6268897;22;20039;-74
2023/11/26 04:14:31;;;;;;;1.40;1.20;;;3.60;94.60;;;;;;6268929;22;20012;-74
2023/11/26 04:17:17;;;;;;;3.65;1.83;;;3.70;94.60;;;;;;6268683;22;20496;-74
2023/11/26 04:20:08;;;;;;;3.22;1.50;;;3.70;94.60;;;;;;6272485;22;20341;-74
2023/11/26 04:22:54;;;;;;;2.63;1.60;;;3.60;94.60;;;;;;6269780;22;20134;-74
2023/11/26 04:25:40;;;;;;;2.20;1.50;;;3.70;94.60;;;;;;6270590;22;20022;-74
2023/11/26 04:28:26;;;;;;;2.90;1.50;;;3.70;94.60;;;;;;6269313;22;20471;-73
2023/11/26 04:31:12;;;;;;;2.25;1.48;;;3.70;94.60;;;;;;6271918;22;20061;-75
2023/11/26 04:33:58;;;;;;;3.78;2.05;;;3.70;94.70;;;;;;6271879;22;20015;-74
2023/11/26 04:36:44;;;;;;;2.15;1.40;;;3.70;94.70;;;;;;6269876;22;20077;-75
2023/11/26 04:39:30;;;;;;;2.90;1.58;;;3.60;94.60;;;;;;6271294;22;20460;-74
2023/11/26 04:42:16;;;;;;;2.55;1.60;;;3.70;94.70;;;;;;6272875;22;20000;-75
2023/11/26 04:45:02;;;;;;;3.10;1.90;;;3.70;94.80;;;;;;6271028;22;20427;-74
2023/11/26 04:47:48;;;;;;;2.83;1.70;;;3.70;94.80;;;;;;6271031;22;20027;-75
2023/11/26 04:50:34;;;;;;;8.02;1.90;;;3.70;94.80;;;;;;6271298;22;20026;-75
2023/11/26 04:53:20;;;;;;;4.65;1.92;;;3.60;94.90;;;;;;6271806;22;20027;-74
2023/11/26 04:56:06;;;;;;;2.25;1.35;;;3.70;95.00;;;;;;6274420;22;20041;-74
2023/11/26 04:58:52;;;;;;;2.97;1.80;;;3.70;95.00;;;;;;6286287;22;20027;-74
2023/11/26 05:01:43;;;;;;;2.63;1.98;;;3.80;95.20;;;;;;6292665;22;20034;-73
2023/11/26 05:04:29;;;;;;;2.35;1.38;;;3.80;95.10;;;;;;6284969;22;20321;-74
2023/11/26 05:07:15;;;;;;;2.53;1.42;;;3.90;95.10;;;;;;6288995;22;20437;-74
2023/11/26 05:10:01;;;;;;;2.85;1.90;;;3.80;95.10;;;;;;6273810;22;20007;-72
2023/11/26 05:12:47;;;;;;;2.53;1.70;;;3.80;95.30;;;;;;6270082;22;20007;-74
2023/11/26 05:15:33;;;;;;;2.70;1.52;;;3.80;95.10;;;;;;6270422;22;20015;-73
2023/11/26 05:18:20;;;;;;;2.90;1.70;;;3.90;95.10;;;;;;6271360;22;20392;-73
2023/11/26 05:21:06;;;;;;;2.70;1.67;;;3.80;95.10;;;;;;6269908;22;20354;-75
2023/11/26 05:23:52;;;;;;;2.47;1.45;;;3.80;95.20;;;;;;6270771;22;20389;-74
2023/11/26 05:26:38;;;;;;;2.15;1.50;;;3.70;95.20;;;;;;6270428;22;20015;-73
2023/11/26 05:29:24;;;;;;;2.85;1.52;;;3.70;95.30;;;;;;6270691;22;20023;-73
2023/11/26 05:32:10;;;;;;;2.58;1.63;;;3.80;95.40;;;;;;6270506;22;20011;-73
2023/11/26 05:34:56;;;;;;;2.85;1.50;;;3.80;95.40;;;;;;6270020;22;20330;-72
2023/11/26 05:37:42;;;;;;;2.38;1.52;;;3.80;95.30;;;;;;6270148;22;20020;-73
2023/11/26 05:40:28;;;;;;;1.52;1.23;;;3.90;95.40;;;;;;6248969;22;20058;-73
2023/11/26 05:43:14;;;;;;;2.42;1.58;;;3.80;95.30;;;;;;6269458;22;20007;-74
2023/11/26 05:46:00;;;;;;;2.63;1.50;;;3.80;95.30;;;;;;6270328;22;20023;-73
2023/11/26 05:48:46;;;;;;;2.20;1.48;;;3.90;95.30;;;;;;6269107;22;20162;-73
2023/11/26 05:51:32;;;;;;;2.97;2.10;;;3.90;95.30;;;;;;6271108;22;20011;-74
2023/11/26 05:54:18;;;;;;;1.92;1.38;;;3.80;95.20;;;;;;6270657;22;20018;-73
2023/11/26 05:57:04;;;;;;;1.85;1.40;;;3.80;95.40;;;;;;6269040;22;20261;-73
2023/11/26 05:59:51;;;;;;;1.90;1.50;;;3.80;95.40;;;;;;6268995;22;20011;-73
2023/11/26 06:02:37;;;;;;;4.50;2.20;;;3.80;95.50;;;;;;6271145;22;20015;-74
2023/11/26 06:05:23;;;;;;;2.95;1.80;;;3.80;95.60;;;;;;6271459;22;20368;-73
2023/11/26 06:08:09;;;;;;;2.53;1.85;;;3.70;95.60;;;;;;6270534;22;20458;-76
2023/11/26 06:10:55;;;;;;;5.55;2.25;;;3.70;95.70;;;;;;6270009;22;20113;-76
2023/11/26 06:13:41;;;;;;;3.45;1.75;;;3.80;95.80;;;;;;6269010;22;20021;-77
2023/11/26 06:16:27;;;;;;;3.20;2.08;;;3.70;95.90;;;;;;6269037;22;20019;-77
2023/11/26 06:19:13;;;;;;;3.35;2.42;;;3.80;96.00;;;;;;6269327;22;20019;-70
2023/11/26 06:21:59;;;;;;;4.80;2.33;;;3.80;96.10;;;;;;6270442;22;20073;-68
2023/11/26 06:24:45;;;;;;;3.17;2.10;;;3.80;96.20;;;;;;6269632;22;20058;-72
2023/11/26 06:27:31;;;;;;;4.00;2.63;;;3.90;96.20;;;;;;6269896;22;20440;-71
2023/11/26 06:30:17;;;;;;;4.45;2.45;;;3.70;96.30;;;;;;6270418;22;20012;-72
2023/11/26 06:33:03;;;;;;;4.40;2.60;;;3.70;96.40;;;;;;6270040;22;20007;-73
2023/11/26 06:35:49;;;;;;;2.83;2.22;;;3.70;96.50;;;;;;6266996;22;20015;-72
2023/11/26 06:38:36;;;;;;;6.22;3.30;;;3.60;96.50;;;;;;6270702;22;20003;-71
2023/11/26 06:41:31;;;;;;;4.60;2.70;;;3.50;96.80;;;;;;6270235;22;20385;-71
2023/11/26 06:44:17;;;;;;;3.88;2.50;;;3.40;96.90;;;;;;6269296;22;20004;-72
2023/11/26 06:47:03;;;;;;;4.75;2.65;;;3.30;96.90;;;;;;6270418;22;20349;-72
2023/11/26 06:49:49;;;;;;;2.75;1.90;;;3.40;97.00;;;;;;6269125;22;20019;-73
2023/11/26 06:52:35;;;;;;;4.75;2.75;;;3.40;97.00;;;;;;6268495;22;20012;-73
2023/11/26 06:55:21;;;;;;;4.60;2.10;;;3.50;97.00;;;;;;6269319;22;20007;-74
2023/11/26 06:58:07;;;;;;;3.10;1.92;;;3.50;97.00;;;;;;6270345;22;20054;-73
2023/11/26 07:00:53;;;;;;;3.80;2.17;;;3.50;97.00;;;;;;6270601;22;20007;-72
2023/11/26 07:03:39;;;;;;;3.50;2.33;;;3.40;96.90;;;;;;6270993;22;20408;-72
2023/11/26 07:06:25;;;;;;;3.35;2.10;;;3.40;96.90;;;;;;6269933;22;20019;-69
2023/11/26 07:09:11;;;;;;;3.30;2.08;;;3.30;97.00;;;;;;6269278;22;20012;-70
2023/11/26 07:11:57;;;;;;;5.30;2.33;;;3.30;97.00;;;;;;6270129;22;20011;-71
2023/11/26 07:14:43;;;;;;;3.47;2.35;;;3.30;97.10;;;;;;6269578;22;20012;-69
2023/11/26 07:17:29;;;;;;;4.07;2.33;;;3.10;97.10;;;;;;6269515;22;20378;-71
2023/11/26 07:20:17;;;;;;;3.65;2.47;;;3.10;97.20;;;;;;6270513;22;20000;-71
2023/11/26 07:23:03;;;;;;;3.78;2.45;;;3.10;97.50;;;;;;6269277;22;20019;-72
2023/11/26 07:25:49;;;;;;;3.13;2.40;;;3.10;97.20;;;;;;6268451;22;20019;-69
2023/11/26 07:28:36;;;;;;;4.72;2.42;;;3.10;97.30;;;;;;6268110;22;20023;-70
2023/11/26 07:31:22;;;;;;;7.93;3.00;;;3.00;97.30;;;;;;6269243;22;20337;-69
2023/11/26 07:34:08;;;;;;;5.90;2.70;;;3.00;97.30;;;;;;6268889;22;20008;-70
2023/11/26 07:36:55;;;;;;;3.67;2.50;;;3.00;97.40;;;;;;6268280;22;20073;-70
2023/11/26 07:39:41;;;;;;;3.97;2.28;;;3.00;97.30;;;;;;6270714;22;20357;-72
2023/11/26 07:42:26;;;;;;;3.17;2.10;;;3.00;97.30;;;;;;6268207;22;20082;-71
2023/11/26 07:45:13;;;;;;;3.78;2.40;;;2.90;97.30;;;;;;6268347;22;20008;-72
2023/11/26 07:47:59;;;;;;;4.10;3.30;;;2.90;97.30;;;;;;6269153;22;20601;-69
2023/11/26 07:50:45;;;;;;;5.50;2.40;;;2.90;97.30;;;;;;6269457;22;20070;-70
2023/11/26 07:53:32;;;;;;;4.35;2.63;;;2.80;97.40;;;;;;6269653;22;20093;-70
2023/11/26 07:56:18;;;;;;;5.10;2.30;;;2.80;97.40;;;;;;6270656;22;20004;-70
2023/11/26 07:59:06;;;;;;;4.85;3.38;;;2.80;97.50;;;;;;6271804;22;20008;-72
2023/11/26 08:01:52;;;;;;;4.07;2.40;;;2.70;97.50;;;;;;6246230;22;20471;-71
2023/11/26 08:04:38;;;;;;;5.07;2.85;;;2.70;97.50;;;;;;6254247;22;20022;-71
2023/11/26 08:07:24;;;;;;;3.58;2.30;;;2.60;97.50;;;;;;6289731;22;20011;-72
2023/11/26 08:10:18;;;;;;;2.97;2.05;;;2.70;97.50;;;;;;6293417;22;20027;-71
2023/11/26 08:13:06;;;;;;;4.90;2.42;;;2.60;97.40;;;;;;6282592;22;20004;-70
2023/11/26 08:15:56;;;;;;;5.30;2.90;;;2.60;97.50;;;;;;6284214;22;20016;-73
2023/11/26 08:18:42;;;;;;;5.18;2.40;;;2.60;97.50;;;;;;6254800;22;20007;-74
2023/11/26 08:21:31;;;;;;;4.35;2.70;;;2.70;97.50;;;;;;6271401;22;20008;-73
2023/11/26 08:24:18;;;;;;;4.40;2.55;;;2.60;97.50;;;;;;6269262;22;20011;-74
2023/11/26 08:27:04;;;;;;;4.88;2.75;;;2.60;97.50;;;;;;6269863;22;20011;-72
2023/11/26 08:29:50;;;;;;;3.90;2.53;;;2.60;97.60;;;;;;6271136;22;20089;-71
2023/11/26 08:32:41;;;;;;;4.32;2.40;;;2.70;97.60;;;;;;6270262;22;20042;-69
2023/11/26 08:35:30;;;;;;;4.50;2.67;;;2.70;97.60;;;;;;6268464;22;20008;-69
2023/11/26 08:38:16;;;;;;;7.13;2.58;;;2.70;97.50;;;;;;6270581;22;20467;-72
2023/11/26 08:41:05;;;;;;;3.80;2.53;;;2.80;97.50;;;;;;6269524;22;20069;-68
2023/11/26 08:43:51;;;;;;;3.40;2.53;;;2.80;97.50;;;;;;6269795;22;20004;-70
2023/11/26 08:46:40;;;;;;;5.18;2.50;;;2.80;97.50;;;;;;6269579;22;20008;-74
2023/11/26 08:49:28;;;;;;;3.50;1.92;;;2.70;97.40;;;;;;6269587;22;20019;-76
2023/11/26 08:52:14;;;;;;;4.40;2.22;;;2.80;97.40;;;;;;6268353;22;20008;-75
2023/11/26 08:55:06;;;;;;;3.42;2.13;;;2.80;97.40;;;;;;6269020;22;20034;-76
2023/11/26 08:57:52;;;;;;;3.72;2.10;;;2.80;97.30;;;;;;6268644;22;20409;-71
2023/11/26 09:00:38;;;;;;;3.67;1.88;;;2.80;97.30;;;;;;6246978;22;20090;-76
2023/11/26 09:03:24;;;;;;;4.47;2.35;;;3.00;97.30;;;;;;6269798;22;20112;-72
2023/11/26 09:06:10;;;;;;;5.13;2.88;;;2.80;97.30;;;;;;6267549;22;20397;-72
2023/11/26 09:08:56;;;;;;;3.35;2.45;;;2.80;97.20;;;;;;6268606;22;20350;-72
2023/11/26 09:11:42;;;;;;;3.47;2.30;;;2.90;97.30;;;;;;6270062;22;20016;-74
2023/11/26 09:14:28;;;;;;;3.80;2.40;;;2.80;97.20;;;;;;6269085;22;20019;-75
2023/11/26 09:17:14;;;;;;;3.08;1.88;;;2.80;97.30;;;;;;6268905;22;20393;-74
2023/11/26 09:20:00;;;;;;;3.10;2.22;;;2.80;97.10;;;;;;6248319;22;20039;-72
2023/11/26 09:22:48;;;;;;;3.58;2.30;;;2.90;97.10;;;;;;6269540;22;20011;-74
2023/11/26 09:25:33;;;;;;;4.35;2.40;;;2.90;97.10;;;;;;6269607;22;20004;-73
2023/11/26 09:28:19;;;;;;;4.38;2.65;;;2.90;96.80;;;;;;6247189;22;20020;-72
2023/11/26 09:31:07;;;;;;;3.58;2.40;;;2.90;96.90;;;;;;6271665;22;20047;-72
2023/11/26 09:33:53;;;;;;;12.60;2.63;;;2.90;96.90;;;;;;6269667;22;20465;-74
2023/11/26 09:36:41;;;;;;;4.40;2.30;;;3.00;96.80;;;;;;6269034;22;20058;-73
2023/11/26 09:39:27;;;;;;;3.63;2.13;;;3.00;96.70;;;;;;6244474;22;20092;-72
2023/11/26 09:42:13;;;;;;;3.20;2.40;;;3.10;96.70;;;;;;6268390;22;20078;-73
2023/11/26 09:45:00;;;;;;;4.22;2.10;;;3.10;96.60;;;;;;6267963;22;20015;-71
2023/11/26 09:47:46;;;;;;;3.38;2.17;;;3.20;96.30;;;;;;6269831;22;20015;-73
2023/11/26 09:50:32;;;;;;;3.97;1.90;;;3.20;96.20;;;;;;6268921;22;20019;-72
2023/11/26 09:53:19;;;;;;;3.20;2.10;;;3.20;96.10;;;;;;6270857;22;20350;-73
2023/11/26 09:56:09;;;;;;;3.10;1.98;;;3.20;95.90;;;;;;6269307;22;20086;-73
2023/11/26 09:58:55;;;;;;;2.83;2.08;;;3.30;96.10;;;;;;6268746;22;20012;-72
2023/11/26 10:01:41;;;;;;;3.70;2.53;;;3.30;95.90;;;;;;6269565;22;20013;-73
2023/11/26 10:04:28;;;;;;;2.65;1.95;;;3.20;95.90;;;;;;6245289;22;20344;-73
2023/11/26 10:07:15;;;;;;;3.30;2.10;;;3.20;95.70;;;;;;6270662;22;20015;-72
2023/11/26 10:10:03;;;;;;;4.45;2.05;;;3.20;95.90;;;;;;6267836;22;20020;-73
2023/11/26 10:13:00;;;;;;;3.00;2.00;;;3.30;95.80;;;;;;6245756;22;20004;-71
2023/11/26 10:15:45;;;;;;;2.92;2.15;;;3.30;95.80;;;;;;6269897;22;20015;-76
2023/11/26 10:18:42;;;;;;;5.90;2.90;;;3.30;95.80;;;;;;6269666;22;20003;-73
2023/11/26 10:21:29;;;;;;;3.88;2.10;;;3.40;95.80;;;;;;6270331;22;20011;-71
2023/11/26 10:24:20;;;;;;;3.63;2.40;;;3.50;95.80;;;;;;6269194;22;20004;-72
2023/11/26 10:27:13;;;;;;;3.35;1.85;;;3.50;95.40;;;;;;6269405;22;20054;-71
2023/11/26 10:29:59;;;;;;;3.22;1.90;;;3.40;95.20;;;;;;6270855;22;20020;-74
2023/11/26 10:33:09;;;;;;;2.80;2.00;;;3.40;95.20;;;;;;6271443;22;20046;-72
2023/11/26 10:35:55;;;;;;;3.22;1.90;;;3.40;95.20;;;;;;6271210;22;20034;-71
2023/11/26 10:38:43;;;;;;;4.47;2.63;;;3.40;95.20;;;;;;6270362;22;20016;-72
2023/11/26 10:41:36;;;;;;;4.57;2.10;;;3.40;95.20;;;;;;6268093;22;20442;-73
2023/11/26 10:44:23;;;;;;;4.03;1.83;;;3.40;95.20;;;;;;6270493;22;20627;-72
2023/11/26 10:47:12;;;;;;;2.13;1.73;;;3.40;94.80;;;;;;6269592;22;20007;-72
2023/11/26 10:50:03;;;;;;;3.95;2.17;;;3.40;95.00;;;;;;6270406;22;20026;-73
2023/11/26 10:52:55;;;;;;;5.55;2.45;;;3.50;94.80;;;;;;6271685;22;20129;-71
2023/11/26 10:55:44;;;;;;;5.88;1.80;;;3.50;94.90;;;;;;6269702;22;20011;-71
2023/11/26 10:58:39;;;;;;;4.07;1.98;;;3.50;94.90;;;;;;6271298;22;20046;-71
2023/11/26 11:01:25;;;;;;;4.55;2.05;;;3.50;95.00;;;;;;6269629;22;20012;-70
2023/11/26 11:04:15;;;;;;;5.07;2.80;;;3.60;95.00;;;;;;6270093;22;20025;-72
2023/11/26 11:07:01;;;;;;;4.13;2.13;;;3.60;94.70;;;;;;6270167;22;20076;-72
2023/11/26 11:09:51;;;;;;;3.03;2.03;;;3.60;94.80;;;;;;6271207;22;20016;-71
2023/11/26 11:12:58;;;;;;;2.70;1.80;;;3.70;94.70;;;;;;6270394;22;20011;-72
2023/11/26 11:15:45;;;;;;;4.50;2.20;;;3.70;94.80;;;;;;6283006;22;20518;-71
2023/11/26 11:18:38;;;;;;;3.20;2.45;;;3.70;94.60;;;;;;6286319;22;20015;-71
2023/11/26 11:21:24;;;;;;;2.70;1.92;;;3.80;94.80;;;;;;6289729;22;20011;-72
2023/11/26 11:24:19;;;;;;;3.28;2.00;;;3.90;94.80;;;;;;6292118;22;20007;-72
2023/11/26 11:27:05;;;;;;;3.75;2.15;;;4.00;94.50;;;;;;6266784;22;20008;-72
2023/11/26 11:29:51;;;;;;;2.97;2.00;;;4.00;94.40;;;;;;6284215;22;20022;-72
2023/11/26 11:33:03;;;;;;;2.97;1.80;;;4.00;94.10;;;;;;6271243;22;20008;-72
2023/11/26 11:35:50;;;;;;;3.00;2.13;;;4.10;94.40;;;;;;6267502;22;20014;-73
2023/11/26 11:39:03;;;;;;;3.50;1.65;;;4.10;94.30;;;;;;6267079;22;20437;-74
2023/11/26 11:42:04;;;;;;;5.22;2.20;;;4.20;94.40;;;;;;6246341;22;20761;-75
2023/11/26 11:44:52;;;;;;;3.05;2.00;;;4.20;94.00;;;;;;6269311;22;20043;-71
2023/11/26 11:47:41;;;;;;;3.17;1.85;;;4.20;94.10;;;;;;6270399;22;20015;-72
2023/11/26 11:50:30;;;;;;;3.00;1.90;;;4.10;93.40;;;;;;6270729;22;20345;-72
2023/11/26 11:53:16;;;;;;;3.97;2.17;;;4.10;93.40;;;;;;6269481;22;20016;-72
2023/11/26 11:56:09;;;;;;;3.20;1.90;;;4.10;94.00;;;;;;6270652;22;20003;-72
2023/11/26 11:58:56;;;;;;;2.92;1.63;;;4.20;93.90;;;;;;6245913;22;20062;-73
2023/11/26 12:01:43;;;;;;;2.67;2.05;;;4.30;93.90;;;;;;6267751;22;20012;-72
2023/11/26 12:04:47;;;;;;;3.03;2.00;;;4.20;93.70;;;;;;6269339;22;20028;-73
2023/11/26 12:07:34;;;;;;;4.13;2.22;;;4.20;93.30;;;;;;6245463;22;20020;-73
2023/11/26 12:10:28;;;;;;;2.85;1.60;;;4.10;93.20;;;;;;6266319;22;20007;-75
2023/11/26 12:13:13;;;;;;;5.53;2.40;;;4.00;93.20;;;;;;6267701;22;20440;-74
2023/11/26 12:15:59;;;;;;;3.92;2.40;;;4.10;93.40;;;;;;6269204;22;20065;-74
2023/11/26 12:18:46;;;;;;;3.80;2.22;;;4.10;93.30;;;;;;6268721;22;20018;-73
2023/11/26 12:21:32;;;;;;;3.30;1.90;;;4.10;93.10;;;;;;6247210;22;20138;-74
2023/11/26 12:24:23;;;;;;;3.40;2.03;;;4.20;93.40;;;;;;6267585;22;20011;-74
2023/11/26 12:27:24;;;;;;;2.60;2.05;;;4.20;93.20;;;;;;6266058;22;20353;-74
2023/11/26 12:30:11;;;;;;;3.95;1.85;;;4.20;93.20;;;;;;6270771;22;20396;-74
2023/11/26 12:32:58;;;;;;;8.45;2.45;;;4.20;93.00;;;;;;6271895;22;20011;-74
2023/11/26 12:35:44;;;;;;;3.67;2.13;;;4.30;93.30;;;;;;6270642;22;20376;-74
2023/11/26 12:38:31;;;;;;;3.05;1.88;;;4.30;93.20;;;;;;6270369;22;20071;-73
2023/11/26 12:41:19;;;;;;;3.67;2.05;;;4.30;93.10;;;;;;6273605;22;20356;-75
2023/11/26 12:44:08;;;;;;;3.85;2.40;;;4.30;93.10;;;;;;6270145;22;20008;-74
2023/11/26 12:47:10;;;;;;;3.03;1.90;;;4.30;92.90;;;;;;6269736;22;20133;-74
2023/11/26 12:50:01;;;;;;;3.60;2.10;;;4.20;92.90;;;;;;6272001;22;20027;-74
2023/11/26 12:52:48;;;;;;;4.05;2.28;;;4.30;93.00;;;;;;6271587;22;20012;-74
2023/11/26 12:55:35;;;;;;;3.90;2.70;;;4.30;92.90;;;;;;6249364;22;20050;-74
2023/11/26 12:58:24;;;;;;;5.25;2.80;;;4.30;92.90;;;;;;6271458;22;20390;-73
2023/11/26 13:01:25;;;;;;;5.43;2.65;;;4.30;92.90;;;;;;6270793;22;20011;-74
2023/11/26 13:04:11;;;;;;;5.60;1.95;;;4.30;92.80;;;;;;6271112;22;20353;-75
2023/11/26 13:06:57;;;;;;;4.32;2.05;;;4.30;92.80;;;;;;6272169;22;20011;-74
2023/11/26 13:09:47;;;;;;;4.18;1.92;;;4.40;92.90;;;;;;6271310;22;20023;-74
2023/11/26 13:12:42;;;;;;;4.28;2.33;;;4.40;92.90;;;;;;6270386;22;20061;-74
2023/11/26 13:15:27;;;;;;;4.70;2.80;;;4.50;92.90;;;;;;6271128;22;20479;-74
2023/11/26 13:18:15;;;;;;;5.38;2.72;;;4.50;92.90;;;;;;6272773;22;20384;-74
2023/11/26 13:21:05;;;;;;;6.28;2.33;;;4.50;92.90;;;;;;6270975;22;20035;-74
2023/11/26 13:23:51;;;;;;;3.35;1.98;;;4.60;93.00;;;;;;6271232;22;20046;-74
2023/11/26 13:26:37;;;;;;;3.08;2.10;;;4.70;92.80;;;;;;6272235;22;20039;-73
2023/11/26 13:29:23;;;;;;;2.90;1.92;;;4.70;92.90;;;;;;6270288;22;20016;-74
2023/11/26 13:32:09;;;;;;;3.05;2.08;;;4.70;92.90;;;;;;6271599;22;20004;-74
2023/11/26 13:34:55;;;;;;;3.55;2.30;;;4.80;92.90;;;;;;6269548;22;20007;-73
2023/11/26 13:37:42;;;;;;;2.72;1.73;;;4.80;92.90;;;;;;6270131;22;20007;-73
2023/11/26 13:40:28;;;;;;;2.88;1.77;;;4.80;92.90;;;;;;6271697;22;20489;-73
2023/11/26 13:43:18;;;;;;;3.13;1.88;;;4.70;92.80;;;;;;6272633;22;20052;-74
2023/11/26 13:46:04;;;;;;;3.05;1.80;;;4.80;92.90;;;;;;6271361;22;20011;-72
2023/11/26 13:48:50;;;;;;;3.28;1.85;;;4.80;92.90;;;;;;6247988;22;20091;-73
2023/11/26 13:51:36;;;;;;;3.92;2.10;;;4.80;92.90;;;;;;6271446;22;20011;-73
2023/11/26 13:54:22;;;;;;;3.17;2.10;;;4.80;92.90;;;;;;6270550;22;20061;-73
2023/11/26 13:57:08;;;;;;;3.67;2.10;;;4.90;92.90;;;;;;6269777;22;20122;-73
2023/11/26 13:59:55;;;;;;;3.40;2.20;;;4.80;92.80;;;;;;6270180;22;20442;-74
2023/11/26 14:02:41;;;;;;;4.35;2.50;;;4.90;92.90;;;;;;6270009;22;20038;-73
2023/11/26 14:05:27;;;;;;;3.97;1.98;;;4.90;92.90;;;;;;6272123;22;20090;-73
2023/11/26 14:08:13;;;;;;;4.28;2.42;;;4.90;92.90;;;;;;6270271;22;20023;-73
2023/11/26 14:10:59;;;;;;;6.07;2.92;;;5.00;92.90;;;;;;6248858;22;20000;-74
2023/11/26 14:13:45;;;;;;;3.80;2.20;;;4.90;92.70;;;;;;6270665;22;20012;-74
2023/11/26 14:16:31;;;;;;;6.18;2.63;;;5.00;92.80;;;;;;6282444;22;20016;-73
2023/11/26 14:19:17;;;;;;;5.03;3.28;;;5.00;92.80;;;;;;6284878;22;20014;-73
2023/11/26 14:22:04;;;;;;;5.53;2.72;;;5.00;92.80;;;;;;6293269;22;20012;-73
2023/11/26 14:24:50;;;;;;;5.90;3.13;;;5.00;92.70;;;;;;6291100;22;20015;-75
2023/11/26 14:27:36;;;;;;;4.95;2.35;;;5.00;92.80;;;;;;6288195;22;20012;-74
2023/11/26 14:30:22;;;;;;;3.03;2.15;;;5.00;92.70;;;;;;6285729;22;20445;-74
2023/11/26 14:33:08;;;;;;;3.40;2.13;;;5.00;92.70;;;;;;6249641;22;20082;-74
2023/11/26 14:35:54;;;;;;;4.65;2.50;;;5.00;92.70;;;;;;6271198;22;20389;-73
2023/11/26 14:38:40;;;;;;;4.13;2.28;;;5.00;92.70;;;;;;6271214;22;20008;-74
2023/11/26 14:41:26;;;;;;;4.18;2.35;;;5.00;92.70;;;;;;6271790;22;20137;-73
2023/11/26 14:44:12;;;;;;;12.07;3.03;;;5.00;92.70;;;;;;6269615;22;20390;-74
2023/11/26 14:46:58;;;;;;;4.18;2.60;;;5.00;92.70;;;;;;6270121;22;20434;-73